sensor_id;sensor_type;location;lat;lon;timestamp;P1;durP1;ratioP1;P2;durP2;ratioP2
69152;SDS011;56261;51.580;4.578;2022-08-19T00:00:17;27.20;;;16.23;;
69152;SDS011;56261;51.580;4.578;2022-08-19T00:02:43;31.27;;;15.55;;
69152;SDS011;56261;51.580;4.578;2022-08-19T00:05:09;27.00;;;17.05;;
69152;SDS011;56261;51.580;4.578;2022-08-19T00:07:35;27.33;;;16.13;;
69152;SDS011;56261;51.580;4.578;2022-08-19T00:10:03;26.00;;;16.40;;
69152;SDS011;56261;51.580;4.578;2022-08-19T00:12:30;25.45;;;15.25;;
69152;SDS011;56261;51.580;4.578;2022-08-19T00:14:56;28.48;;;17.08;;
69152;SDS011;56261;51.580;4.578;2022-08-19T00:17:22;26.60;;;16.27;;
69152;SDS011;56261;51.580;4.578;2022-08-19T00:19:47;25.07;;;15.80;;
69152;SDS011;56261;51.580;4.578;2022-08-19T00:22:12;28.67;;;16.60;;
69152;SDS011;56261;51.580;4.578;2022-08-19T00:24:38;28.00;;;16.17;;
69152;SDS011;56261;51.580;4.578;2022-08-19T00:27:04;26.40;;;16.07;;
69152;SDS011;56261;51.580;4.578;2022-08-19T00:29:30;24.75;;;15.77;;
69152;SDS011;56261;51.580;4.578;2022-08-19T00:31:56;25.20;;;15.53;;
69152;SDS011;56261;51.580;4.578;2022-08-19T00:34:23;24.98;;;14.90;;
69152;SDS011;56261;51.580;4.578;2022-08-19T00:36:51;24.10;;;15.57;;
69152;SDS011;56261;51.580;4.578;2022-08-19T00:39:17;23.83;;;14.97;;
69152;SDS011;56261;51.580;4.578;2022-08-19T00:41:43;26.70;;;16.08;;
69152;SDS011;56261;51.580;4.578;2022-08-19T00:44:14;26.50;;;15.95;;
69152;SDS011;56261;51.580;4.578;2022-08-19T00:46:41;29.37;;;17.73;;
69152;SDS011;56261;51.580;4.578;2022-08-19T00:49:13;28.08;;;16.17;;
69152;SDS011;56261;51.580;4.578;2022-08-19T00:51:43;32.92;;;18.77;;
69152;SDS011;56261;51.580;4.578;2022-08-19T00:54:11;35.80;;;20.23;;
69152;SDS011;56261;51.580;4.578;2022-08-19T00:56:37;33.75;;;20.25;;
69152;SDS011;56261;51.580;4.578;2022-08-19T00:59:03;37.77;;;21.90;;
69152;SDS011;56261;51.580;4.578;2022-08-19T01:01:34;34.80;;;20.45;;
69152;SDS011;56261;51.580;4.578;2022-08-19T01:04:01;34.72;;;19.85;;
69152;SDS011;56261;51.580;4.578;2022-08-19T01:06:27;33.20;;;20.10;;
69152;SDS011;56261;51.580;4.578;2022-08-19T01:08:53;32.23;;;19.27;;
69152;SDS011;56261;51.580;4.578;2022-08-19T01:11:20;30.88;;;18.80;;
69152;SDS011;56261;51.580;4.578;2022-08-19T01:13:46;33.22;;;20.17;;
69152;SDS011;56261;51.580;4.578;2022-08-19T01:16:11;32.50;;;18.73;;
69152;SDS011;56261;51.580;4.578;2022-08-19T01:18:39;33.72;;;20.63;;
69152;SDS011;56261;51.580;4.578;2022-08-19T01:21:49;31.25;;;19.90;;
69152;SDS011;56261;51.580;4.578;2022-08-19T01:24:13;34.13;;;20.05;;
69152;SDS011;56261;51.580;4.578;2022-08-19T01:26:40;38.87;;;21.23;;
69152;SDS011;56261;51.580;4.578;2022-08-19T01:29:07;32.95;;;19.48;;
69152;SDS011;56261;51.580;4.578;2022-08-19T01:31:33;32.43;;;19.43;;
69152;SDS011;56261;51.580;4.578;2022-08-19T01:33:59;30.42;;;19.00;;
69152;SDS011;56261;51.580;4.578;2022-08-19T01:38:55;29.38;;;18.42;;
69152;SDS011;56261;51.580;4.578;2022-08-19T01:41:20;32.78;;;19.60;;
69152;SDS011;56261;51.580;4.578;2022-08-19T01:43:48;33.20;;;19.37;;
69152;SDS011;56261;51.580;4.578;2022-08-19T01:46:15;37.60;;;21.15;;
69152;SDS011;56261;51.580;4.578;2022-08-19T01:48:41;36.88;;;19.75;;
69152;SDS011;56261;51.580;4.578;2022-08-19T01:51:08;43.58;;;23.42;;
69152;SDS011;56261;51.580;4.578;2022-08-19T01:53:35;39.60;;;22.37;;
69152;SDS011;56261;51.580;4.578;2022-08-19T01:56:01;39.78;;;22.52;;
69152;SDS011;56261;51.580;4.578;2022-08-19T01:58:30;39.58;;;22.77;;
69152;SDS011;56261;51.580;4.578;2022-08-19T02:01:00;38.97;;;21.90;;
69152;SDS011;56261;51.580;4.578;2022-08-19T02:03:27;50.50;;;24.55;;
69152;SDS011;56261;51.580;4.578;2022-08-19T02:05:56;44.93;;;23.17;;
69152;SDS011;56261;51.580;4.578;2022-08-19T02:08:28;64.57;;;29.77;;
69152;SDS011;56261;51.580;4.578;2022-08-19T02:10:55;66.73;;;29.90;;
69152;SDS011;56261;51.580;4.578;2022-08-19T02:13:21;63.03;;;29.33;;
69152;SDS011;56261;51.580;4.578;2022-08-19T02:15:47;65.13;;;30.33;;
69152;SDS011;56261;51.580;4.578;2022-08-19T02:18:12;84.07;;;33.70;;
69152;SDS011;56261;51.580;4.578;2022-08-19T02:20:38;77.05;;;34.28;;
69152;SDS011;56261;51.580;4.578;2022-08-19T02:23:05;88.93;;;36.30;;
69152;SDS011;56261;51.580;4.578;2022-08-19T02:25:31;85.00;;;35.70;;
69152;SDS011;56261;51.580;4.578;2022-08-19T02:27:56;89.13;;;35.77;;
69152;SDS011;56261;51.580;4.578;2022-08-19T02:30:22;83.27;;;36.50;;
69152;SDS011;56261;51.580;4.578;2022-08-19T02:32:48;88.93;;;36.65;;
69152;SDS011;56261;51.580;4.578;2022-08-19T02:35:14;90.87;;;37.97;;
69152;SDS011;56261;51.580;4.578;2022-08-19T02:37:40;83.45;;;35.38;;
69152;SDS011;56261;51.580;4.578;2022-08-19T02:40:25;84.55;;;34.83;;
69152;SDS011;56261;51.580;4.578;2022-08-19T02:42:53;86.13;;;36.90;;
69152;SDS011;56261;51.580;4.578;2022-08-19T02:45:18;83.07;;;36.13;;
69152;SDS011;56261;51.580;4.578;2022-08-19T02:47:44;86.17;;;34.93;;
69152;SDS011;56261;51.580;4.578;2022-08-19T02:50:09;82.27;;;35.50;;
69152;SDS011;56261;51.580;4.578;2022-08-19T02:52:35;89.70;;;36.83;;
69152;SDS011;56261;51.580;4.578;2022-08-19T02:55:01;80.17;;;35.87;;
69152;SDS011;56261;51.580;4.578;2022-08-19T02:57:26;88.13;;;36.30;;
69152;SDS011;56261;51.580;4.578;2022-08-19T02:59:52;86.03;;;36.23;;
69152;SDS011;56261;51.580;4.578;2022-08-19T03:02:18;81.90;;;35.15;;
69152;SDS011;56261;51.580;4.578;2022-08-19T03:04:44;78.47;;;33.85;;
69152;SDS011;56261;51.580;4.578;2022-08-19T03:07:13;82.85;;;35.63;;
69152;SDS011;56261;51.580;4.578;2022-08-19T03:09:39;83.60;;;35.60;;
69152;SDS011;56261;51.580;4.578;2022-08-19T03:12:05;91.43;;;38.40;;
69152;SDS011;56261;51.580;4.578;2022-08-19T03:14:31;100.70;;;40.03;;
69152;SDS011;56261;51.580;4.578;2022-08-19T03:16:58;92.03;;;38.35;;
69152;SDS011;56261;51.580;4.578;2022-08-19T03:19:24;86.47;;;37.60;;
69152;SDS011;56261;51.580;4.578;2022-08-19T03:21:50;98.33;;;39.07;;
69152;SDS011;56261;51.580;4.578;2022-08-19T03:24:17;100.43;;;39.90;;
69152;SDS011;56261;51.580;4.578;2022-08-19T03:26:44;94.73;;;38.73;;
69152;SDS011;56261;51.580;4.578;2022-08-19T03:29:12;93.43;;;38.88;;
69152;SDS011;56261;51.580;4.578;2022-08-19T03:31:39;91.13;;;39.53;;
69152;SDS011;56261;51.580;4.578;2022-08-19T03:34:05;87.17;;;38.57;;
69152;SDS011;56261;51.580;4.578;2022-08-19T03:36:31;102.80;;;39.00;;
69152;SDS011;56261;51.580;4.578;2022-08-19T03:38:59;84.60;;;37.27;;
69152;SDS011;56261;51.580;4.578;2022-08-19T03:41:29;100.03;;;39.38;;
69152;SDS011;56261;51.580;4.578;2022-08-19T03:43:57;92.93;;;38.38;;
69152;SDS011;56261;51.580;4.578;2022-08-19T03:46:24;84.70;;;36.97;;
69152;SDS011;56261;51.580;4.578;2022-08-19T03:48:53;85.43;;;36.88;;
69152;SDS011;56261;51.580;4.578;2022-08-19T03:53:47;81.10;;;36.75;;
69152;SDS011;56261;51.580;4.578;2022-08-19T03:56:13;89.97;;;38.35;;
69152;SDS011;56261;51.580;4.578;2022-08-19T03:58:40;86.47;;;36.75;;
69152;SDS011;56261;51.580;4.578;2022-08-19T04:01:10;90.00;;;36.85;;
69152;SDS011;56261;51.580;4.578;2022-08-19T04:03:38;87.17;;;37.53;;
69152;SDS011;56261;51.580;4.578;2022-08-19T04:06:14;90.00;;;39.47;;
69152;SDS011;56261;51.580;4.578;2022-08-19T04:08:42;81.55;;;33.95;;
69152;SDS011;56261;51.580;4.578;2022-08-19T04:11:12;91.82;;;38.85;;
69152;SDS011;56261;51.580;4.578;2022-08-19T04:13:40;81.10;;;35.75;;
69152;SDS011;56261;51.580;4.578;2022-08-19T04:16:07;81.73;;;36.00;;
69152;SDS011;56261;51.580;4.578;2022-08-19T04:18:35;83.05;;;33.95;;
69152;SDS011;56261;51.580;4.578;2022-08-19T04:21:01;81.07;;;35.10;;
69152;SDS011;56261;51.580;4.578;2022-08-19T04:23:27;81.05;;;35.53;;
69152;SDS011;56261;51.580;4.578;2022-08-19T04:25:56;81.38;;;34.13;;
69152;SDS011;56261;51.580;4.578;2022-08-19T04:28:22;84.53;;;33.80;;
69152;SDS011;56261;51.580;4.578;2022-08-19T04:30:49;75.95;;;32.00;;
69152;SDS011;56261;51.580;4.578;2022-08-19T04:33:17;80.88;;;32.15;;
69152;SDS011;56261;51.580;4.578;2022-08-19T04:35:47;89.80;;;34.10;;
69152;SDS011;56261;51.580;4.578;2022-08-19T04:38:15;84.18;;;33.53;;
69152;SDS011;56261;51.580;4.578;2022-08-19T04:40:42;67.82;;;30.33;;
69152;SDS011;56261;51.580;4.578;2022-08-19T04:43:28;68.43;;;30.27;;
69152;SDS011;56261;51.580;4.578;2022-08-19T04:45:53;74.57;;;30.70;;
69152;SDS011;56261;51.580;4.578;2022-08-19T04:48:19;72.25;;;32.05;;
69152;SDS011;56261;51.580;4.578;2022-08-19T04:50:57;69.45;;;30.30;;
69152;SDS011;56261;51.580;4.578;2022-08-19T04:53:24;69.88;;;29.75;;
69152;SDS011;56261;51.580;4.578;2022-08-19T04:55:50;63.07;;;28.17;;
69152;SDS011;56261;51.580;4.578;2022-08-19T04:58:16;65.97;;;28.83;;
69152;SDS011;56261;51.580;4.578;2022-08-19T05:00:42;69.10;;;28.00;;
69152;SDS011;56261;51.580;4.578;2022-08-19T05:03:08;64.25;;;27.80;;
69152;SDS011;56261;51.580;4.578;2022-08-19T05:05:37;62.53;;;27.17;;
69152;SDS011;56261;51.580;4.578;2022-08-19T05:08:04;59.92;;;26.88;;
69152;SDS011;56261;51.580;4.578;2022-08-19T05:10:30;62.78;;;27.25;;
69152;SDS011;56261;51.580;4.578;2022-08-19T05:12:55;60.40;;;26.37;;
69152;SDS011;56261;51.580;4.578;2022-08-19T05:15:22;60.13;;;27.35;;
69152;SDS011;56261;51.580;4.578;2022-08-19T05:17:47;59.97;;;27.27;;
69152;SDS011;56261;51.580;4.578;2022-08-19T05:20:33;55.93;;;25.33;;
69152;SDS011;56261;51.580;4.578;2022-08-19T05:23:24;52.95;;;25.20;;
69152;SDS011;56261;51.580;4.578;2022-08-19T05:25:50;51.90;;;25.30;;
69152;SDS011;56261;51.580;4.578;2022-08-19T05:28:16;57.53;;;25.20;;
69152;SDS011;56261;51.580;4.578;2022-08-19T05:30:43;62.15;;;27.02;;
69152;SDS011;56261;51.580;4.578;2022-08-19T05:33:10;51.63;;;26.35;;
69152;SDS011;56261;51.580;4.578;2022-08-19T05:35:36;50.60;;;24.52;;
69152;SDS011;56261;51.580;4.578;2022-08-19T05:38:02;50.45;;;24.45;;
69152;SDS011;56261;51.580;4.578;2022-08-19T05:40:28;49.37;;;23.80;;
69152;SDS011;56261;51.580;4.578;2022-08-19T05:42:54;54.85;;;24.70;;
69152;SDS011;56261;51.580;4.578;2022-08-19T05:45:19;52.47;;;23.90;;
69152;SDS011;56261;51.580;4.578;2022-08-19T05:47:46;47.42;;;23.30;;
69152;SDS011;56261;51.580;4.578;2022-08-19T05:50:11;43.53;;;22.23;;
69152;SDS011;56261;51.580;4.578;2022-08-19T05:52:37;46.40;;;22.40;;
69152;SDS011;56261;51.580;4.578;2022-08-19T05:55:03;48.80;;;23.43;;
69152;SDS011;56261;51.580;4.578;2022-08-19T05:57:29;45.97;;;22.88;;
69152;SDS011;56261;51.580;4.578;2022-08-19T05:59:55;47.67;;;22.53;;
69152;SDS011;56261;51.580;4.578;2022-08-19T06:02:21;46.87;;;21.33;;
69152;SDS011;56261;51.580;4.578;2022-08-19T06:04:47;52.63;;;23.45;;
69152;SDS011;56261;51.580;4.578;2022-08-19T06:07:12;50.13;;;22.87;;
69152;SDS011;56261;51.580;4.578;2022-08-19T06:09:38;46.30;;;23.30;;
69152;SDS011;56261;51.580;4.578;2022-08-19T06:12:04;50.15;;;23.52;;
69152;SDS011;56261;51.580;4.578;2022-08-19T06:14:31;48.67;;;23.55;;
69152;SDS011;56261;51.580;4.578;2022-08-19T06:16:59;48.63;;;21.57;;
69152;SDS011;56261;51.580;4.578;2022-08-19T06:19:27;57.60;;;24.63;;
69152;SDS011;56261;51.580;4.578;2022-08-19T06:21:55;45.63;;;22.83;;
69152;SDS011;56261;51.580;4.578;2022-08-19T06:24:23;51.55;;;22.35;;
69152;SDS011;56261;51.580;4.578;2022-08-19T06:26:50;44.10;;;21.52;;
69152;SDS011;56261;51.580;4.578;2022-08-19T06:29:18;46.47;;;22.00;;
69152;SDS011;56261;51.580;4.578;2022-08-19T06:31:46;43.72;;;22.23;;
69152;SDS011;56261;51.580;4.578;2022-08-19T06:34:15;49.38;;;22.52;;
69152;SDS011;56261;51.580;4.578;2022-08-19T06:36:42;45.20;;;21.77;;
69152;SDS011;56261;51.580;4.578;2022-08-19T06:39:11;43.78;;;21.83;;
69152;SDS011;56261;51.580;4.578;2022-08-19T06:41:43;45.07;;;22.00;;
69152;SDS011;56261;51.580;4.578;2022-08-19T06:44:12;43.53;;;22.63;;
69152;SDS011;56261;51.580;4.578;2022-08-19T06:46:39;47.40;;;22.55;;
69152;SDS011;56261;51.580;4.578;2022-08-19T06:49:06;44.17;;;21.98;;
69152;SDS011;56261;51.580;4.578;2022-08-19T06:51:35;43.92;;;22.17;;
69152;SDS011;56261;51.580;4.578;2022-08-19T06:54:00;42.17;;;21.33;;
69152;SDS011;56261;51.580;4.578;2022-08-19T06:56:28;37.28;;;20.90;;
69152;SDS011;56261;51.580;4.578;2022-08-19T06:59:00;39.33;;;20.58;;
69152;SDS011;56261;51.580;4.578;2022-08-19T07:01:27;38.85;;;19.90;;
69152;SDS011;56261;51.580;4.578;2022-08-19T07:03:53;41.40;;;20.03;;
69152;SDS011;56261;51.580;4.578;2022-08-19T07:06:18;40.83;;;20.93;;
69152;SDS011;56261;51.580;4.578;2022-08-19T07:08:45;39.60;;;20.17;;
69152;SDS011;56261;51.580;4.578;2022-08-19T07:11:13;43.10;;;21.25;;
69152;SDS011;56261;51.580;4.578;2022-08-19T07:13:43;46.17;;;21.90;;
69152;SDS011;56261;51.580;4.578;2022-08-19T07:16:12;41.63;;;20.45;;
69152;SDS011;56261;51.580;4.578;2022-08-19T07:18:39;42.03;;;20.70;;
69152;SDS011;56261;51.580;4.578;2022-08-19T07:21:15;40.22;;;20.52;;
69152;SDS011;56261;51.580;4.578;2022-08-19T07:23:43;41.17;;;22.08;;
69152;SDS011;56261;51.580;4.578;2022-08-19T07:26:18;45.97;;;22.33;;
69152;SDS011;56261;51.580;4.578;2022-08-19T07:28:47;41.65;;;19.92;;
69152;SDS011;56261;51.580;4.578;2022-08-19T07:31:15;35.93;;;19.73;;
69152;SDS011;56261;51.580;4.578;2022-08-19T07:33:43;36.75;;;20.73;;
69152;SDS011;56261;51.580;4.578;2022-08-19T07:36:11;38.85;;;19.92;;
69152;SDS011;56261;51.580;4.578;2022-08-19T07:38:40;36.60;;;20.02;;
69152;SDS011;56261;51.580;4.578;2022-08-19T07:41:08;35.42;;;19.83;;
69152;SDS011;56261;51.580;4.578;2022-08-19T07:43:37;33.93;;;19.37;;
69152;SDS011;56261;51.580;4.578;2022-08-19T07:46:03;37.92;;;20.45;;
69152;SDS011;56261;51.580;4.578;2022-08-19T07:48:28;39.70;;;20.02;;
69152;SDS011;56261;51.580;4.578;2022-08-19T07:50:55;34.90;;;19.00;;
69152;SDS011;56261;51.580;4.578;2022-08-19T07:53:22;31.80;;;17.60;;
69152;SDS011;56261;51.580;4.578;2022-08-19T07:55:49;28.77;;;16.88;;
69152;SDS011;56261;51.580;4.578;2022-08-19T07:58:16;27.33;;;15.87;;
69152;SDS011;56261;51.580;4.578;2022-08-19T08:00:44;29.33;;;16.13;;
69152;SDS011;56261;51.580;4.578;2022-08-19T08:03:12;31.35;;;16.25;;
69152;SDS011;56261;51.580;4.578;2022-08-19T08:05:38;28.48;;;16.10;;
69152;SDS011;56261;51.580;4.578;2022-08-19T08:08:22;29.63;;;16.48;;
69152;SDS011;56261;51.580;4.578;2022-08-19T08:11:07;36.40;;;17.67;;
69152;SDS011;56261;51.580;4.578;2022-08-19T08:13:33;32.53;;;17.35;;
69152;SDS011;56261;51.580;4.578;2022-08-19T08:16:00;30.90;;;16.67;;
69152;SDS011;56261;51.580;4.578;2022-08-19T08:18:27;36.28;;;17.92;;
69152;SDS011;56261;51.580;4.578;2022-08-19T08:20:52;29.37;;;17.83;;
69152;SDS011;56261;51.580;4.578;2022-08-19T08:23:18;30.43;;;16.10;;
69152;SDS011;56261;51.580;4.578;2022-08-19T08:25:55;27.80;;;15.52;;
69152;SDS011;56261;51.580;4.578;2022-08-19T08:28:22;31.42;;;15.98;;
69152;SDS011;56261;51.580;4.578;2022-08-19T08:30:48;27.83;;;15.57;;
69152;SDS011;56261;51.580;4.578;2022-08-19T08:33:19;28.77;;;15.80;;
69152;SDS011;56261;51.580;4.578;2022-08-19T08:35:46;28.60;;;16.35;;
69152;SDS011;56261;51.580;4.578;2022-08-19T08:38:11;31.92;;;15.25;;
69152;SDS011;56261;51.580;4.578;2022-08-19T08:40:39;26.43;;;14.97;;
69152;SDS011;56261;51.580;4.578;2022-08-19T08:43:21;25.45;;;14.82;;
69152;SDS011;56261;51.580;4.578;2022-08-19T08:45:58;24.60;;;15.00;;
69152;SDS011;56261;51.580;4.578;2022-08-19T08:48:27;29.13;;;14.70;;
69152;SDS011;56261;51.580;4.578;2022-08-19T08:51:12;24.65;;;14.43;;
69152;SDS011;56261;51.580;4.578;2022-08-19T08:53:43;28.27;;;15.10;;
69152;SDS011;56261;51.580;4.578;2022-08-19T08:56:11;27.58;;;15.50;;
69152;SDS011;56261;51.580;4.578;2022-08-19T08:59:00;26.35;;;15.60;;
69152;SDS011;56261;51.580;4.578;2022-08-19T09:01:32;26.98;;;15.13;;
69152;SDS011;56261;51.580;4.578;2022-08-19T09:03:58;26.80;;;15.68;;
69152;SDS011;56261;51.580;4.578;2022-08-19T09:06:27;31.73;;;17.27;;
69152;SDS011;56261;51.580;4.578;2022-08-19T09:09:10;30.73;;;16.90;;
69152;SDS011;56261;51.580;4.578;2022-08-19T09:17:07;32.80;;;17.52;;
69152;SDS011;56261;51.580;4.578;2022-08-19T09:19:35;29.92;;;17.48;;
69152;SDS011;56261;51.580;4.578;2022-08-19T09:22:17;29.38;;;17.67;;
69152;SDS011;56261;51.580;4.578;2022-08-19T09:24:46;28.75;;;17.10;;
69152;SDS011;56261;51.580;4.578;2022-08-19T09:27:13;33.03;;;17.10;;
69152;SDS011;56261;51.580;4.578;2022-08-19T09:29:39;31.33;;;18.38;;
69152;SDS011;56261;51.580;4.578;2022-08-19T09:32:04;25.87;;;15.80;;
69152;SDS011;56261;51.580;4.578;2022-08-19T09:34:31;23.43;;;15.13;;
69152;SDS011;56261;51.580;4.578;2022-08-19T09:36:57;23.17;;;15.48;;
69152;SDS011;56261;51.580;4.578;2022-08-19T09:39:24;26.15;;;16.30;;
69152;SDS011;56261;51.580;4.578;2022-08-19T09:41:50;23.83;;;14.73;;
69152;SDS011;56261;51.580;4.578;2022-08-19T09:44:16;23.77;;;15.13;;
69152;SDS011;56261;51.580;4.578;2022-08-19T09:46:41;24.77;;;14.20;;
69152;SDS011;56261;51.580;4.578;2022-08-19T09:49:07;23.33;;;14.20;;
69152;SDS011;56261;51.580;4.578;2022-08-19T09:51:32;21.13;;;13.63;;
69152;SDS011;56261;51.580;4.578;2022-08-19T09:53:59;22.80;;;13.70;;
69152;SDS011;56261;51.580;4.578;2022-08-19T09:56:29;18.70;;;13.50;;
69152;SDS011;56261;51.580;4.578;2022-08-19T09:58:57;23.08;;;14.02;;
69152;SDS011;56261;51.580;4.578;2022-08-19T10:01:24;19.00;;;12.73;;
69152;SDS011;56261;51.580;4.578;2022-08-19T10:03:52;20.98;;;12.60;;
69152;SDS011;56261;51.580;4.578;2022-08-19T10:06:21;19.50;;;13.40;;
69152;SDS011;56261;51.580;4.578;2022-08-19T10:08:48;21.05;;;12.77;;
69152;SDS011;56261;51.580;4.578;2022-08-19T10:11:16;18.38;;;10.98;;
69152;SDS011;56261;51.580;4.578;2022-08-19T10:13:42;16.05;;;10.27;;
69152;SDS011;56261;51.580;4.578;2022-08-19T10:16:10;15.35;;;10.43;;
69152;SDS011;56261;51.580;4.578;2022-08-19T10:18:37;18.13;;;11.93;;
69152;SDS011;56261;51.580;4.578;2022-08-19T10:21:09;20.38;;;12.05;;
69152;SDS011;56261;51.580;4.578;2022-08-19T10:23:40;16.17;;;10.40;;
69152;SDS011;56261;51.580;4.578;2022-08-19T10:26:13;16.75;;;10.13;;
69152;SDS011;56261;51.580;4.578;2022-08-19T10:28:41;13.98;;;9.00;;
69152;SDS011;56261;51.580;4.578;2022-08-19T10:31:07;17.13;;;10.50;;
69152;SDS011;56261;51.580;4.578;2022-08-19T10:33:38;16.90;;;10.50;;
69152;SDS011;56261;51.580;4.578;2022-08-19T10:36:05;17.23;;;9.20;;
69152;SDS011;56261;51.580;4.578;2022-08-19T10:38:36;19.17;;;10.20;;
69152;SDS011;56261;51.580;4.578;2022-08-19T10:41:10;22.77;;;13.07;;
69152;SDS011;56261;51.580;4.578;2022-08-19T10:43:39;33.80;;;13.77;;
69152;SDS011;56261;51.580;4.578;2022-08-19T10:46:06;23.92;;;15.02;;
69152;SDS011;56261;51.580;4.578;2022-08-19T10:48:33;28.23;;;16.83;;
69152;SDS011;56261;51.580;4.578;2022-08-19T10:50:59;27.63;;;16.98;;
69152;SDS011;56261;51.580;4.578;2022-08-19T10:53:44;25.87;;;15.83;;
69152;SDS011;56261;51.580;4.578;2022-08-19T10:56:09;26.55;;;15.98;;
69152;SDS011;56261;51.580;4.578;2022-08-19T10:58:53;29.47;;;17.77;;
69152;SDS011;56261;51.580;4.578;2022-08-19T11:01:19;36.13;;;20.48;;
69152;SDS011;56261;51.580;4.578;2022-08-19T11:03:45;30.03;;;19.57;;
69152;SDS011;56261;51.580;4.578;2022-08-19T11:06:10;32.40;;;19.13;;
69152;SDS011;56261;51.580;4.578;2022-08-19T11:08:36;34.57;;;21.33;;
69152;SDS011;56261;51.580;4.578;2022-08-19T11:11:07;38.17;;;21.38;;
69152;SDS011;56261;51.580;4.578;2022-08-19T11:13:34;36.25;;;20.77;;
69152;SDS011;56261;51.580;4.578;2022-08-19T11:16:03;33.10;;;19.17;;
69152;SDS011;56261;51.580;4.578;2022-08-19T11:18:29;41.45;;;20.98;;
69152;SDS011;56261;51.580;4.578;2022-08-19T11:20:55;43.30;;;21.23;;
69152;SDS011;56261;51.580;4.578;2022-08-19T11:23:30;42.28;;;21.92;;
69152;SDS011;56261;51.580;4.578;2022-08-19T11:25:56;43.22;;;22.15;;
69152;SDS011;56261;51.580;4.578;2022-08-19T11:28:22;40.17;;;21.53;;
69152;SDS011;56261;51.580;4.578;2022-08-19T11:30:47;43.67;;;21.00;;
69152;SDS011;56261;51.580;4.578;2022-08-19T11:33:12;38.43;;;20.50;;
69152;SDS011;56261;51.580;4.578;2022-08-19T11:35:38;36.47;;;19.10;;
69152;SDS011;56261;51.580;4.578;2022-08-19T11:38:06;35.40;;;19.88;;
69152;SDS011;56261;51.580;4.578;2022-08-19T11:40:31;36.50;;;19.57;;
69152;SDS011;56261;51.580;4.578;2022-08-19T11:42:58;35.75;;;18.67;;
69152;SDS011;56261;51.580;4.578;2022-08-19T11:45:24;31.93;;;17.57;;
69152;SDS011;56261;51.580;4.578;2022-08-19T11:47:52;32.88;;;17.33;;
69152;SDS011;56261;51.580;4.578;2022-08-19T11:50:18;31.70;;;18.42;;
69152;SDS011;56261;51.580;4.578;2022-08-19T11:52:44;32.50;;;19.33;;
69152;SDS011;56261;51.580;4.578;2022-08-19T11:55:11;32.13;;;18.02;;
69152;SDS011;56261;51.580;4.578;2022-08-19T11:57:38;32.67;;;17.53;;
69152;SDS011;56261;51.580;4.578;2022-08-19T12:00:05;36.97;;;18.40;;
69152;SDS011;56261;51.580;4.578;2022-08-19T12:02:32;31.33;;;17.20;;
69152;SDS011;56261;51.580;4.578;2022-08-19T12:04:58;33.33;;;17.87;;
69152;SDS011;56261;51.580;4.578;2022-08-19T12:07:23;34.72;;;17.63;;
69152;SDS011;56261;51.580;4.578;2022-08-19T12:09:49;30.67;;;16.73;;
69152;SDS011;56261;51.580;4.578;2022-08-19T12:12:15;27.13;;;15.13;;
69152;SDS011;56261;51.580;4.578;2022-08-19T12:14:41;28.43;;;15.40;;
69152;SDS011;56261;51.580;4.578;2022-08-19T12:17:06;27.35;;;15.45;;
69152;SDS011;56261;51.580;4.578;2022-08-19T12:19:35;25.33;;;13.97;;
69152;SDS011;56261;51.580;4.578;2022-08-19T12:22:01;22.95;;;13.93;;
69152;SDS011;56261;51.580;4.578;2022-08-19T12:24:30;23.30;;;13.13;;
69152;SDS011;56261;51.580;4.578;2022-08-19T12:26:57;23.05;;;13.02;;
69152;SDS011;56261;51.580;4.578;2022-08-19T12:29:24;24.58;;;13.32;;
69152;SDS011;56261;51.580;4.578;2022-08-19T12:31:54;23.87;;;13.23;;
69152;SDS011;56261;51.580;4.578;2022-08-19T12:34:26;27.27;;;14.48;;
69152;SDS011;56261;51.580;4.578;2022-08-19T12:36:55;27.90;;;15.55;;
69152;SDS011;56261;51.580;4.578;2022-08-19T12:39:21;24.58;;;13.48;;
69152;SDS011;56261;51.580;4.578;2022-08-19T12:41:46;26.40;;;15.70;;
69152;SDS011;56261;51.580;4.578;2022-08-19T12:44:14;26.42;;;15.25;;
69152;SDS011;56261;51.580;4.578;2022-08-19T12:46:39;29.77;;;15.48;;
69152;SDS011;56261;51.580;4.578;2022-08-19T12:49:05;26.10;;;15.07;;
69152;SDS011;56261;51.580;4.578;2022-08-19T12:51:30;26.63;;;15.53;;
69152;SDS011;56261;51.580;4.578;2022-08-19T12:53:56;25.33;;;14.55;;
69152;SDS011;56261;51.580;4.578;2022-08-19T12:56:22;25.67;;;14.60;;
69152;SDS011;56261;51.580;4.578;2022-08-19T12:58:47;27.80;;;15.53;;
69152;SDS011;56261;51.580;4.578;2022-08-19T13:01:13;24.98;;;14.30;;
69152;SDS011;56261;51.580;4.578;2022-08-19T13:03:41;27.37;;;14.50;;
69152;SDS011;56261;51.580;4.578;2022-08-19T13:06:08;22.30;;;13.63;;
69152;SDS011;56261;51.580;4.578;2022-08-19T13:08:34;24.20;;;13.93;;
69152;SDS011;56261;51.580;4.578;2022-08-19T13:11:07;26.15;;;13.73;;
69152;SDS011;56261;51.580;4.578;2022-08-19T13:13:35;22.55;;;13.27;;
69152;SDS011;56261;51.580;4.578;2022-08-19T13:16:01;23.00;;;12.70;;
69152;SDS011;56261;51.580;4.578;2022-08-19T13:18:28;23.20;;;12.73;;
69152;SDS011;56261;51.580;4.578;2022-08-19T13:20:53;24.50;;;14.73;;
69152;SDS011;56261;51.580;4.578;2022-08-19T13:23:19;26.13;;;14.23;;
69152;SDS011;56261;51.580;4.578;2022-08-19T13:25:44;24.20;;;14.30;;
69152;SDS011;56261;51.580;4.578;2022-08-19T13:28:09;25.13;;;15.50;;
69152;SDS011;56261;51.580;4.578;2022-08-19T13:30:35;26.77;;;16.67;;
69152;SDS011;56261;51.580;4.578;2022-08-19T13:33:19;27.45;;;16.35;;
69152;SDS011;56261;51.580;4.578;2022-08-19T13:35:49;25.40;;;15.00;;
69152;SDS011;56261;51.580;4.578;2022-08-19T13:38:21;24.77;;;15.30;;
69152;SDS011;56261;51.580;4.578;2022-08-19T13:40:47;24.35;;;13.30;;
69152;SDS011;56261;51.580;4.578;2022-08-19T13:43:15;26.65;;;13.73;;
69152;SDS011;56261;51.580;4.578;2022-08-19T13:45:42;21.47;;;12.37;;
69152;SDS011;56261;51.580;4.578;2022-08-19T13:48:07;21.60;;;12.10;;
69152;SDS011;56261;51.580;4.578;2022-08-19T13:50:40;21.80;;;11.52;;
69152;SDS011;56261;51.580;4.578;2022-08-19T13:53:08;15.83;;;8.50;;
69152;SDS011;56261;51.580;4.578;2022-08-19T13:55:37;18.75;;;8.90;;
69152;SDS011;56261;51.580;4.578;2022-08-19T13:58:03;18.75;;;10.00;;
69152;SDS011;56261;51.580;4.578;2022-08-19T14:00:31;19.63;;;9.57;;
69152;SDS011;56261;51.580;4.578;2022-08-19T14:02:59;15.53;;;9.30;;
69152;SDS011;56261;51.580;4.578;2022-08-19T14:05:25;17.65;;;9.52;;
69152;SDS011;56261;51.580;4.578;2022-08-19T14:07:51;19.02;;;10.45;;
69152;SDS011;56261;51.580;4.578;2022-08-19T14:10:17;20.03;;;11.73;;
69152;SDS011;56261;51.580;4.578;2022-08-19T14:12:43;22.52;;;12.40;;
69152;SDS011;56261;51.580;4.578;2022-08-19T14:15:10;20.47;;;12.50;;
69152;SDS011;56261;51.580;4.578;2022-08-19T14:17:40;20.98;;;12.65;;
69152;SDS011;56261;51.580;4.578;2022-08-19T14:20:08;20.17;;;12.07;;
69152;SDS011;56261;51.580;4.578;2022-08-19T14:22:35;22.52;;;13.23;;
69152;SDS011;56261;51.580;4.578;2022-08-19T14:25:06;20.95;;;13.80;;
69152;SDS011;56261;51.580;4.578;2022-08-19T14:27:34;26.23;;;14.60;;
69152;SDS011;56261;51.580;4.578;2022-08-19T14:30:00;26.45;;;14.20;;
69152;SDS011;56261;51.580;4.578;2022-08-19T14:32:27;21.48;;;13.25;;
69152;SDS011;56261;51.580;4.578;2022-08-19T14:34:52;21.23;;;13.73;;